sensor_id;sensor_type;location;lat;lon;timestamp;P1;durP1;ratioP1;P2;durP2;ratioP2
9761;SDS011;4920;49.594;11.022;2023-08-20T00:02:12;12.25;;;8.20;;
9761;SDS011;4920;49.594;11.022;2023-08-20T00:04:42;12.25;;;7.65;;
9761;SDS011;4920;49.594;11.022;2023-08-20T00:07:15;10.00;;;7.63;;
9761;SDS011;4920;49.594;11.022;2023-08-20T00:09:46;10.07;;;7.20;;
9761;SDS011;4920;49.594;11.022;2023-08-20T00:12:15;11.38;;;7.40;;
9761;SDS011;4920;49.594;11.022;2023-08-20T00:14:54;9.77;;;7.40;;
9761;SDS011;4920;49.594;11.022;2023-08-20T00:17:25;12.90;;;7.85;;
9761;SDS011;4920;49.594;11.022;2023-08-20T00:19:55;10.40;;;8.25;;
9761;SDS011;4920;49.594;11.022;2023-08-20T00:22:25;11.48;;;7.43;;
9761;SDS011;4920;49.594;11.022;2023-08-20T00:24:56;13.45;;;8.27;;
9761;SDS011;4920;49.594;11.022;2023-08-20T00:27:25;10.98;;;7.90;;
9761;SDS011;4920;49.594;11.022;2023-08-20T00:29:54;10.23;;;7.95;;
9761;SDS011;4920;49.594;11.022;2023-08-20T00:32:23;13.27;;;8.52;;
9761;SDS011;4920;49.594;11.022;2023-08-20T00:34:52;10.30;;;8.23;;
9761;SDS011;4920;49.594;11.022;2023-08-20T00:37:21;10.70;;;8.25;;
9761;SDS011;4920;49.594;11.022;2023-08-20T00:39:49;13.98;;;8.30;;
9761;SDS011;4920;49.594;11.022;2023-08-20T00:42:21;12.23;;;8.15;;
9761;SDS011;4920;49.594;11.022;2023-08-20T00:44:52;14.20;;;8.77;;
9761;SDS011;4920;49.594;11.022;2023-08-20T00:47:21;14.75;;;7.95;;
9761;SDS011;4920;49.594;11.022;2023-08-20T00:49:50;12.07;;;7.75;;
9761;SDS011;4920;49.594;11.022;2023-08-20T00:52:19;10.45;;;7.82;;
9761;SDS011;4920;49.594;11.022;2023-08-20T00:54:49;13.38;;;7.80;;
9761;SDS011;4920;49.594;11.022;2023-08-20T00:57:18;15.07;;;8.57;;
9761;SDS011;4920;49.594;11.022;2023-08-20T00:59:49;8.90;;;7.72;;
9761;SDS011;4920;49.594;11.022;2023-08-20T01:02:19;13.68;;;8.05;;
9761;SDS011;4920;49.594;11.022;2023-08-20T01:04:48;11.88;;;7.97;;
9761;SDS011;4920;49.594;11.022;2023-08-20T01:07:19;10.93;;;8.02;;
9761;SDS011;4920;49.594;11.022;2023-08-20T01:09:56;13.10;;;8.27;;
9761;SDS011;4920;49.594;11.022;2023-08-20T01:12:31;15.65;;;8.18;;
9761;SDS011;4920;49.594;11.022;2023-08-20T01:15:05;12.98;;;7.93;;
9761;SDS011;4920;49.594;11.022;2023-08-20T01:17:35;13.30;;;7.72;;
9761;SDS011;4920;49.594;11.022;2023-08-20T01:20:05;11.57;;;8.32;;
9761;SDS011;4920;49.594;11.022;2023-08-20T01:22:48;11.90;;;8.13;;
9761;SDS011;4920;49.594;11.022;2023-08-20T01:25:30;9.93;;;7.82;;
9761;SDS011;4920;49.594;11.022;2023-08-20T01:28:24;14.32;;;7.82;;
9761;SDS011;4920;49.594;11.022;2023-08-20T01:30:54;12.45;;;8.27;;
9761;SDS011;4920;49.594;11.022;2023-08-20T01:33:25;11.90;;;7.88;;
9761;SDS011;4920;49.594;11.022;2023-08-20T01:35:57;12.00;;;7.85;;
9761;SDS011;4920;49.594;11.022;2023-08-20T01:38:26;11.43;;;7.80;;
9761;SDS011;4920;49.594;11.022;2023-08-20T01:40:55;13.95;;;8.07;;
9761;SDS011;4920;49.594;11.022;2023-08-20T01:43:25;11.07;;;8.05;;
9761;SDS011;4920;49.594;11.022;2023-08-20T01:45:54;12.13;;;7.28;;
9761;SDS011;4920;49.594;11.022;2023-08-20T01:48:23;12.70;;;8.27;;
9761;SDS011;4920;49.594;11.022;2023-08-20T01:50:52;11.68;;;8.18;;
9761;SDS011;4920;49.594;11.022;2023-08-20T01:53:21;11.35;;;8.00;;
9761;SDS011;4920;49.594;11.022;2023-08-20T01:55:49;8.95;;;7.68;;
9761;SDS011;4920;49.594;11.022;2023-08-20T01:58:19;10.13;;;7.93;;
9761;SDS011;4920;49.594;11.022;2023-08-20T02:00:50;12.48;;;7.90;;
9761;SDS011;4920;49.594;11.022;2023-08-20T02:03:19;9.82;;;8.00;;
9761;SDS011;4920;49.594;11.022;2023-08-20T02:05:48;13.23;;;8.55;;
9761;SDS011;4920;49.594;11.022;2023-08-20T02:08:17;15.13;;;8.45;;
9761;SDS011;4920;49.594;11.022;2023-08-20T02:10:46;12.20;;;8.23;;
9761;SDS011;4920;49.594;11.022;2023-08-20T02:13:15;11.00;;;7.88;;
9761;SDS011;4920;49.594;11.022;2023-08-20T02:15:43;10.60;;;8.35;;
9761;SDS011;4920;49.594;11.022;2023-08-20T02:18:15;12.60;;;8.88;;
9761;SDS011;4920;49.594;11.022;2023-08-20T02:20:43;13.10;;;8.32;;
9761;SDS011;4920;49.594;11.022;2023-08-20T02:23:12;10.65;;;8.05;;
9761;SDS011;4920;49.594;11.022;2023-08-20T02:25:41;12.10;;;7.93;;
9761;SDS011;4920;49.594;11.022;2023-08-20T02:28:11;9.45;;;8.25;;
9761;SDS011;4920;49.594;11.022;2023-08-20T02:30:40;17.10;;;8.63;;
9761;SDS011;4920;49.594;11.022;2023-08-20T02:33:10;12.85;;;8.55;;
9761;SDS011;4920;49.594;11.022;2023-08-20T02:35:41;10.55;;;7.80;;
9761;SDS011;4920;49.594;11.022;2023-08-20T02:38:10;10.65;;;8.48;;
9761;SDS011;4920;49.594;11.022;2023-08-20T02:40:40;11.63;;;7.80;;
9761;SDS011;4920;49.594;11.022;2023-08-20T02:43:09;10.80;;;8.35;;
9761;SDS011;4920;49.594;11.022;2023-08-20T02:45:41;9.30;;;8.27;;
9761;SDS011;4920;49.594;11.022;2023-08-20T02:48:11;10.75;;;8.13;;
9761;SDS011;4920;49.594;11.022;2023-08-20T02:50:41;11.45;;;8.65;;
9761;SDS011;4920;49.594;11.022;2023-08-20T02:53:10;12.77;;;8.65;;
9761;SDS011;4920;49.594;11.022;2023-08-20T02:55:39;14.45;;;8.45;;
9761;SDS011;4920;49.594;11.022;2023-08-20T02:58:08;11.80;;;8.90;;
9761;SDS011;4920;49.594;11.022;2023-08-20T03:00:37;14.00;;;8.93;;
9761;SDS011;4920;49.594;11.022;2023-08-20T03:03:06;14.38;;;9.18;;
9761;SDS011;4920;49.594;11.022;2023-08-20T03:05:38;15.25;;;8.90;;
9761;SDS011;4920;49.594;11.022;2023-08-20T03:08:08;10.90;;;8.73;;
9761;SDS011;4920;49.594;11.022;2023-08-20T03:10:37;10.85;;;8.57;;
9761;SDS011;4920;49.594;11.022;2023-08-20T03:13:06;11.15;;;8.68;;
9761;SDS011;4920;49.594;11.022;2023-08-20T03:15:35;12.98;;;9.07;;
9761;SDS011;4920;49.594;11.022;2023-08-20T03:18:04;11.40;;;8.80;;
9761;SDS011;4920;49.594;11.022;2023-08-20T03:20:34;10.10;;;8.57;;
9761;SDS011;4920;49.594;11.022;2023-08-20T03:23:03;12.98;;;8.82;;
9761;SDS011;4920;49.594;11.022;2023-08-20T03:25:33;12.45;;;8.88;;
9761;SDS011;4920;49.594;11.022;2023-08-20T03:28:02;11.75;;;9.15;;
9761;SDS011;4920;49.594;11.022;2023-08-20T03:30:32;13.82;;;9.88;;
9761;SDS011;4920;49.594;11.022;2023-08-20T03:33:01;16.90;;;9.82;;
9761;SDS011;4920;49.594;11.022;2023-08-20T03:35:32;13.38;;;9.57;;
9761;SDS011;4920;49.594;11.022;2023-08-20T03:38:01;15.13;;;9.05;;
9761;SDS011;4920;49.594;11.022;2023-08-20T03:40:30;14.48;;;8.85;;
9761;SDS011;4920;49.594;11.022;2023-08-20T03:43:01;12.05;;;9.27;;
9761;SDS011;4920;49.594;11.022;2023-08-20T03:45:30;13.52;;;9.32;;
9761;SDS011;4920;49.594;11.022;2023-08-20T03:48:00;12.38;;;9.50;;
9761;SDS011;4920;49.594;11.022;2023-08-20T03:50:29;15.85;;;8.93;;
9761;SDS011;4920;49.594;11.022;2023-08-20T03:52:58;12.88;;;9.32;;
9761;SDS011;4920;49.594;11.022;2023-08-20T03:55:27;11.75;;;9.45;;
9761;SDS011;4920;49.594;11.022;2023-08-20T03:57:57;13.27;;;9.30;;
9761;SDS011;4920;49.594;11.022;2023-08-20T04:00:26;12.93;;;9.57;;
9761;SDS011;4920;49.594;11.022;2023-08-20T04:02:55;12.60;;;9.55;;
9761;SDS011;4920;49.594;11.022;2023-08-20T04:05:24;11.60;;;9.10;;
9761;SDS011;4920;49.594;11.022;2023-08-20T04:07:52;14.75;;;9.32;;
9761;SDS011;4920;49.594;11.022;2023-08-20T04:10:23;10.43;;;9.05;;
9761;SDS011;4920;49.594;11.022;2023-08-20T04:12:51;14.82;;;10.00;;
9761;SDS011;4920;49.594;11.022;2023-08-20T04:15:22;15.25;;;9.77;;
9761;SDS011;4920;49.594;11.022;2023-08-20T04:17:51;13.63;;;9.50;;
9761;SDS011;4920;49.594;11.022;2023-08-20T04:20:20;15.82;;;9.05;;
9761;SDS011;4920;49.594;11.022;2023-08-20T04:22:49;13.27;;;9.50;;
9761;SDS011;4920;49.594;11.022;2023-08-20T04:25:18;13.43;;;9.25;;
9761;SDS011;4920;49.594;11.022;2023-08-20T04:27:47;14.43;;;9.27;;
9761;SDS011;4920;49.594;11.022;2023-08-20T04:30:16;13.45;;;9.30;;
9761;SDS011;4920;49.594;11.022;2023-08-20T04:32:46;11.27;;;9.63;;
9761;SDS011;4920;49.594;11.022;2023-08-20T04:35:15;13.50;;;9.57;;
9761;SDS011;4920;49.594;11.022;2023-08-20T04:37:44;14.73;;;8.68;;
9761;SDS011;4920;49.594;11.022;2023-08-20T04:40:13;11.90;;;8.93;;
9761;SDS011;4920;49.594;11.022;2023-08-20T04:42:44;12.15;;;8.93;;
9761;SDS011;4920;49.594;11.022;2023-08-20T04:45:14;10.93;;;9.00;;
9761;SDS011;4920;49.594;11.022;2023-08-20T04:47:47;10.57;;;8.75;;
9761;SDS011;4920;49.594;11.022;2023-08-20T04:50:16;9.48;;;8.52;;
9761;SDS011;4920;49.594;11.022;2023-08-20T04:52:47;12.15;;;8.77;;
9761;SDS011;4920;49.594;11.022;2023-08-20T04:55:16;10.23;;;8.18;;
9761;SDS011;4920;49.594;11.022;2023-08-20T04:57:46;11.63;;;8.60;;
9761;SDS011;4920;49.594;11.022;2023-08-20T05:00:15;14.90;;;8.27;;
9761;SDS011;4920;49.594;11.022;2023-08-20T05:02:51;11.25;;;8.10;;
9761;SDS011;4920;49.594;11.022;2023-08-20T05:05:23;11.70;;;8.18;;
9761;SDS011;4920;49.594;11.022;2023-08-20T05:07:53;9.02;;;8.10;;
9761;SDS011;4920;49.594;11.022;2023-08-20T05:10:22;11.23;;;8.05;;
9761;SDS011;4920;49.594;11.022;2023-08-20T05:12:51;10.32;;;8.40;;
9761;SDS011;4920;49.594;11.022;2023-08-20T05:15:19;10.80;;;8.02;;
9761;SDS011;4920;49.594;11.022;2023-08-20T05:17:51;12.20;;;8.45;;
9761;SDS011;4920;49.594;11.022;2023-08-20T05:20:20;13.52;;;8.23;;
9761;SDS011;4920;49.594;11.022;2023-08-20T05:22:49;12.77;;;8.43;;
9761;SDS011;4920;49.594;11.022;2023-08-20T05:25:18;12.13;;;8.43;;
9761;SDS011;4920;49.594;11.022;2023-08-20T05:27:48;10.43;;;7.90;;
9761;SDS011;4920;49.594;11.022;2023-08-20T05:30:17;8.60;;;7.70;;
9761;SDS011;4920;49.594;11.022;2023-08-20T05:32:46;10.20;;;7.65;;
9761;SDS011;4920;49.594;11.022;2023-08-20T05:35:17;9.27;;;7.40;;
9761;SDS011;4920;49.594;11.022;2023-08-20T05:37:47;10.48;;;7.75;;
9761;SDS011;4920;49.594;11.022;2023-08-20T05:40:16;11.25;;;7.95;;
9761;SDS011;4920;49.594;11.022;2023-08-20T05:42:45;10.38;;;7.75;;
9761;SDS011;4920;49.594;11.022;2023-08-20T05:45:17;11.00;;;7.90;;
9761;SDS011;4920;49.594;11.022;2023-08-20T05:47:48;14.52;;;7.97;;
9761;SDS011;4920;49.594;11.022;2023-08-20T05:50:18;13.43;;;7.93;;
9761;SDS011;4920;49.594;11.022;2023-08-20T05:52:47;10.23;;;8.27;;
9761;SDS011;4920;49.594;11.022;2023-08-20T05:55:16;11.00;;;8.00;;
9761;SDS011;4920;49.594;11.022;2023-08-20T05:57:46;11.02;;;7.75;;
9761;SDS011;4920;49.594;11.022;2023-08-20T06:00:15;9.50;;;7.70;;
9761;SDS011;4920;49.594;11.022;2023-08-20T06:02:47;12.40;;;7.97;;
9761;SDS011;4920;49.594;11.022;2023-08-20T06:05:18;9.38;;;7.32;;
9761;SDS011;4920;49.594;11.022;2023-08-20T06:07:46;8.45;;;7.25;;
9761;SDS011;4920;49.594;11.022;2023-08-20T06:10:18;11.10;;;7.03;;
9761;SDS011;4920;49.594;11.022;2023-08-20T06:12:46;8.73;;;7.25;;
9761;SDS011;4920;49.594;11.022;2023-08-20T06:15:15;11.38;;;7.53;;
9761;SDS011;4920;49.594;11.022;2023-08-20T06:17:44;8.90;;;7.47;;
9761;SDS011;4920;49.594;11.022;2023-08-20T06:20:13;11.50;;;7.40;;
9761;SDS011;4920;49.594;11.022;2023-08-20T06:22:47;11.20;;;8.13;;
9761;SDS011;4920;49.594;11.022;2023-08-20T06:25:16;11.48;;;7.13;;
9761;SDS011;4920;49.594;11.022;2023-08-20T06:27:44;9.63;;;7.25;;
9761;SDS011;4920;49.594;11.022;2023-08-20T06:30:13;10.10;;;8.00;;
9761;SDS011;4920;49.594;11.022;2023-08-20T06:32:43;10.05;;;7.78;;
9761;SDS011;4920;49.594;11.022;2023-08-20T06:35:13;12.00;;;8.40;;
9761;SDS011;4920;49.594;11.022;2023-08-20T06:37:42;10.27;;;7.40;;
9761;SDS011;4920;49.594;11.022;2023-08-20T06:40:12;10.38;;;8.05;;
9761;SDS011;4920;49.594;11.022;2023-08-20T06:42:41;14.63;;;8.25;;
9761;SDS011;4920;49.594;11.022;2023-08-20T06:45:10;10.80;;;8.10;;
9761;SDS011;4920;49.594;11.022;2023-08-20T06:47:39;9.23;;;8.32;;
9761;SDS011;4920;49.594;11.022;2023-08-20T06:50:09;10.68;;;8.35;;
9761;SDS011;4920;49.594;11.022;2023-08-20T06:52:38;14.45;;;8.80;;
9761;SDS011;4920;49.594;11.022;2023-08-20T06:55:07;9.50;;;8.45;;
9761;SDS011;4920;49.594;11.022;2023-08-20T06:57:38;13.35;;;9.38;;
9761;SDS011;4920;49.594;11.022;2023-08-20T07:00:07;11.13;;;8.80;;
9761;SDS011;4920;49.594;11.022;2023-08-20T07:02:36;12.63;;;9.02;;
9761;SDS011;4920;49.594;11.022;2023-08-20T07:05:05;11.98;;;9.02;;
9761;SDS011;4920;49.594;11.022;2023-08-20T07:07:36;10.60;;;9.13;;
9761;SDS011;4920;49.594;11.022;2023-08-20T07:10:05;9.80;;;8.55;;
9761;SDS011;4920;49.594;11.022;2023-08-20T07:12:34;12.02;;;9.18;;
9761;SDS011;4920;49.594;11.022;2023-08-20T07:15:05;11.30;;;9.55;;
9761;SDS011;4920;49.594;11.022;2023-08-20T07:17:35;13.15;;;9.70;;
9761;SDS011;4920;49.594;11.022;2023-08-20T07:20:06;13.52;;;9.38;;
9761;SDS011;4920;49.594;11.022;2023-08-20T07:22:35;13.45;;;9.57;;
9761;SDS011;4920;49.594;11.022;2023-08-20T07:25:04;11.02;;;9.43;;
9761;SDS011;4920;49.594;11.022;2023-08-20T07:27:34;14.40;;;10.52;;
9761;SDS011;4920;49.594;11.022;2023-08-20T07:30:06;11.80;;;10.02;;
9761;SDS011;4920;49.594;11.022;2023-08-20T07:32:35;13.57;;;10.45;;
9761;SDS011;4920;49.594;11.022;2023-08-20T07:35:04;14.05;;;10.43;;
9761;SDS011;4920;49.594;11.022;2023-08-20T07:37:37;10.77;;;9.68;;
9761;SDS011;4920;49.594;11.022;2023-08-20T07:40:06;12.60;;;11.30;;
9761;SDS011;4920;49.594;11.022;2023-08-20T07:42:36;12.77;;;9.68;;
9761;SDS011;4920;49.594;11.022;2023-08-20T07:45:06;11.88;;;10.15;;
9761;SDS011;4920;49.594;11.022;2023-08-20T07:47:36;13.07;;;9.60;;
9761;SDS011;4920;49.594;11.022;2023-08-20T07:50:05;11.35;;;10.25;;
9761;SDS011;4920;49.594;11.022;2023-08-20T07:52:34;11.27;;;9.45;;
9761;SDS011;4920;49.594;11.022;2023-08-20T07:55:03;11.70;;;9.35;;
9761;SDS011;4920;49.594;11.022;2023-08-20T07:57:32;10.63;;;9.23;;
9761;SDS011;4920;49.594;11.022;2023-08-20T08:00:02;12.27;;;8.93;;
9761;SDS011;4920;49.594;11.022;2023-08-20T08:02:38;11.32;;;9.25;;
9761;SDS011;4920;49.594;11.022;2023-08-20T08:05:07;9.85;;;8.52;;
9761;SDS011;4920;49.594;11.022;2023-08-20T08:07:36;10.60;;;7.45;;
9761;SDS011;4920;49.594;11.022;2023-08-20T08:10:05;10.02;;;7.80;;
9761;SDS011;4920;49.594;11.022;2023-08-20T08:12:35;9.00;;;8.10;;
9761;SDS011;4920;49.594;11.022;2023-08-20T08:15:04;10.13;;;7.82;;
9761;SDS011;4920;49.594;11.022;2023-08-20T08:17:33;9.07;;;8.20;;
9761;SDS011;4920;49.594;11.022;2023-08-20T08:20:05;9.35;;;8.38;;
9761;SDS011;4920;49.594;11.022;2023-08-20T08:22:34;10.45;;;8.30;;
9761;SDS011;4920;49.594;11.022;2023-08-20T08:25:03;11.02;;;8.02;;
9761;SDS011;4920;49.594;11.022;2023-08-20T08:27:32;10.70;;;8.52;;
9761;SDS011;4920;49.594;11.022;2023-08-20T08:30:12;11.52;;;8.07;;
9761;SDS011;4920;49.594;11.022;2023-08-20T08:32:41;11.35;;;8.45;;
9761;SDS011;4920;49.594;11.022;2023-08-20T08:35:12;9.70;;;8.35;;
9761;SDS011;4920;49.594;11.022;2023-08-20T08:37:40;11.10;;;8.20;;
9761;SDS011;4920;49.594;11.022;2023-08-20T08:40:09;11.38;;;8.50;;
9761;SDS011;4920;49.594;11.022;2023-08-20T08:42:38;9.32;;;7.53;;
9761;SDS011;4920;49.594;11.022;2023-08-20T08:45:09;12.43;;;7.72;;
9761;SDS011;4920;49.594;11.022;2023-08-20T08:47:39;9.80;;;7.38;;
9761;SDS011;4920;49.594;11.022;2023-08-20T08:50:08;10.48;;;8.20;;
9761;SDS011;4920;49.594;11.022;2023-08-20T08:52:39;10.77;;;7.93;;
9761;SDS011;4920;49.594;11.022;2023-08-20T08:55:09;11.35;;;7.97;;
9761;SDS011;4920;49.594;11.022;2023-08-20T08:57:38;13.63;;;8.30;;
9761;SDS011;4920;49.594;11.022;2023-08-20T09:00:07;12.50;;;8.27;;
9761;SDS011;4920;49.594;11.022;2023-08-20T09:02:36;10.43;;;8.38;;
9761;SDS011;4920;49.594;11.022;2023-08-20T09:05:05;10.85;;;7.43;;
9761;SDS011;4920;49.594;11.022;2023-08-20T09:07:34;9.57;;;8.55;;
9761;SDS011;4920;49.594;11.022;2023-08-20T09:10:05;10.15;;;8.40;;
9761;SDS011;4920;49.594;11.022;2023-08-20T09:12:35;14.50;;;8.85;;
9761;SDS011;4920;49.594;11.022;2023-08-20T09:15:09;11.60;;;8.20;;
9761;SDS011;4920;49.594;11.022;2023-08-20T09:17:40;12.40;;;8.32;;
9761;SDS011;4920;49.594;11.022;2023-08-20T09:20:10;10.07;;;7.75;;
9761;SDS011;4920;49.594;11.022;2023-08-20T09:22:39;9.52;;;7.88;;
9761;SDS011;4920;49.594;11.022;2023-08-20T09:25:09;8.68;;;7.63;;
9761;SDS011;4920;49.594;11.022;2023-08-20T09:27:43;11.25;;;7.82;;
9761;SDS011;4920;49.594;11.022;2023-08-20T09:30:13;13.18;;;7.85;;
9761;SDS011;4920;49.594;11.022;2023-08-20T09:32:51;9.82;;;7.45;;
9761;SDS011;4920;49.594;11.022;2023-08-20T09:35:31;8.52;;;6.90;;
9761;SDS011;4920;49.594;11.022;2023-08-20T09:38:00;10.38;;;7.25;;
9761;SDS011;4920;49.594;11.022;2023-08-20T09:40:32;11.32;;;6.70;;
9761;SDS011;4920;49.594;11.022;2023-08-20T09:43:01;10.45;;;6.43;;
9761;SDS011;4920;49.594;11.022;2023-08-20T09:45:30;11.40;;;6.25;;
9761;SDS011;4920;49.594;11.022;2023-08-20T09:47:59;9.88;;;6.60;;
9761;SDS011;4920;49.594;11.022;2023-08-20T09:50:34;11.38;;;6.50;;
9761;SDS011;4920;49.594;11.022;2023-08-20T09:53:06;8.98;;;7.15;;
9761;SDS011;4920;49.594;11.022;2023-08-20T09:55:41;10.38;;;6.53;;
9761;SDS011;4920;49.594;11.022;2023-08-20T09:58:11;7.78;;;6.97;;
9761;SDS011;4920;49.594;11.022;2023-08-20T10:00:42;10.00;;;6.38;;
9761;SDS011;4920;49.594;11.022;2023-08-20T10:03:10;11.45;;;6.43;;
9761;SDS011;4920;49.594;11.022;2023-08-20T10:05:40;8.10;;;6.68;;
9761;SDS011;4920;49.594;11.022;2023-08-20T10:08:09;10.40;;;6.75;;
9761;SDS011;4920;49.594;11.022;2023-08-20T10:10:37;10.43;;;7.18;;
9761;SDS011;4920;49.594;11.022;2023-08-20T10:13:08;14.38;;;6.90;;
9761;SDS011;4920;49.594;11.022;2023-08-20T10:15:37;11.60;;;7.00;;
9761;SDS011;4920;49.594;11.022;2023-08-20T10:18:11;9.63;;;7.43;;
9761;SDS011;4920;49.594;11.022;2023-08-20T10:20:40;11.82;;;6.60;;
9761;SDS011;4920;49.594;11.022;2023-08-20T10:23:10;10.60;;;6.65;;
9761;SDS011;4920;49.594;11.022;2023-08-20T10:25:41;9.40;;;6.45;;
9761;SDS011;4920;49.594;11.022;2023-08-20T10:28:20;12.68;;;6.75;;
9761;SDS011;4920;49.594;11.022;2023-08-20T10:31:06;8.85;;;6.38;;
9761;SDS011;4920;49.594;11.022;2023-08-20T10:33:36;10.43;;;6.13;;
9761;SDS011;4920;49.594;11.022;2023-08-20T10:36:06;11.48;;;6.28;;
9761;SDS011;4920;49.594;11.022;2023-08-20T10:38:36;13.75;;;6.78;;
9761;SDS011;4920;49.594;11.022;2023-08-20T10:41:06;11.23;;;6.53;;
9761;SDS011;4920;49.594;11.022;2023-08-20T10:43:38;8.77;;;6.05;;
9761;SDS011;4920;49.594;11.022;2023-08-20T10:46:08;9.27;;;5.95;;
9761;SDS011;4920;49.594;11.022;2023-08-20T10:48:43;9.55;;;5.95;;
9761;SDS011;4920;49.594;11.022;2023-08-20T10:51:16;10.02;;;6.18;;
9761;SDS011;4920;49.594;11.022;2023-08-20T10:54:01;5.63;;;5.00;;
9761;SDS011;4920;49.594;11.022;2023-08-20T10:56:39;9.23;;;5.63;;
9761;SDS011;4920;49.594;11.022;2023-08-20T10:59:16;10.55;;;5.57;;
9761;SDS011;4920;49.594;11.022;2023-08-20T11:01:46;8.60;;;5.20;;
9761;SDS011;4920;49.594;11.022;2023-08-20T11:04:17;10.02;;;5.38;;
9761;SDS011;4920;49.594;11.022;2023-08-20T11:06:49;8.88;;;5.47;;
9761;SDS011;4920;49.594;11.022;2023-08-20T11:09:21;8.73;;;5.88;;
9761;SDS011;4920;49.594;11.022;2023-08-20T11:11:50;8.10;;;5.75;;
9761;SDS011;4920;49.594;11.022;2023-08-20T11:14:21;8.80;;;5.55;;
9761;SDS011;4920;49.594;11.022;2023-08-20T11:16:50;16.73;;;5.82;;
9761;SDS011;4920;49.594;11.022;2023-08-20T11:19:19;11.40;;;5.97;;
9761;SDS011;4920;49.594;11.022;2023-08-20T11:21:50;9.18;;;5.72;;
9761;SDS011;4920;49.594;11.022;2023-08-20T11:24:19;7.88;;;5.90;;
9761;SDS011;4920;49.594;11.022;2023-08-20T11:26:48;8.38;;;5.90;;
9761;SDS011;4920;49.594;11.022;2023-08-20T11:29:18;11.55;;;6.20;;
9761;SDS011;4920;49.594;11.022;2023-08-20T11:31:50;10.73;;;5.85;;
9761;SDS011;4920;49.594;11.022;2023-08-20T11:34:18;10.20;;;6.18;;
9761;SDS011;4920;49.594;11.022;2023-08-20T11:36:48;8.02;;;5.80;;
9761;SDS011;4920;49.594;11.022;2023-08-20T11:39:18;11.40;;;5.97;;
9761;SDS011;4920;49.594;11.022;2023-08-20T11:41:48;8.13;;;5.82;;
9761;SDS011;4920;49.594;11.022;2023-08-20T11:44:20;8.15;;;5.88;;
9761;SDS011;4920;49.594;11.022;2023-08-20T11:46:50;9.95;;;6.63;;
9761;SDS011;4920;49.594;11.022;2023-08-20T11:49:26;7.40;;;6.10;;
9761;SDS011;4920;49.594;11.022;2023-08-20T11:51:56;6.88;;;6.03;;
9761;SDS011;4920;49.594;11.022;2023-08-20T11:54:25;9.25;;;5.90;;
9761;SDS011;4920;49.594;11.022;2023-08-20T11:57:01;7.22;;;5.47;;
9761;SDS011;4920;49.594;11.022;2023-08-20T11:59:30;9.43;;;5.95;;
9761;SDS011;4920;49.594;11.022;2023-08-20T12:02:02;8.68;;;5.90;;
9761;SDS011;4920;49.594;11.022;2023-08-20T12:04:31;7.72;;;5.68;;
9761;SDS011;4920;49.594;11.022;2023-08-20T12:07:01;9.32;;;6.07;;
9761;SDS011;4920;49.594;11.022;2023-08-20T12:09:32;10.25;;;5.78;;
9761;SDS011;4920;49.594;11.022;2023-08-20T12:12:01;8.70;;;5.93;;
9761;SDS011;4920;49.594;11.022;2023-08-20T12:14:30;7.53;;;5.78;;
9761;SDS011;4920;49.594;11.022;2023-08-20T12:17:00;8.82;;;6.10;;
9761;SDS011;4920;49.594;11.022;2023-08-20T12:19:30;7.63;;;5.97;;
9761;SDS011;4920;49.594;11.022;2023-08-20T12:21:59;9.70;;;6.05;;
9761;SDS011;4920;49.594;11.022;2023-08-20T12:24:27;6.93;;;5.35;;
9761;SDS011;4920;49.594;11.022;2023-08-20T12:26:56;8.10;;;5.97;;
9761;SDS011;4920;49.594;11.022;2023-08-20T12:29:25;8.70;;;5.90;;
9761;SDS011;4920;49.594;11.022;2023-08-20T12:31:54;9.65;;;5.90;;
9761;SDS011;4920;49.594;11.022;2023-08-20T12:34:24;8.77;;;6.07;;
9761;SDS011;4920;49.594;11.022;2023-08-20T12:36:53;11.07;;;6.50;;
9761;SDS011;4920;49.594;11.022;2023-08-20T12:39:21;10.80;;;5.82;;
9761;SDS011;4920;49.594;11.022;2023-08-20T12:41:50;8.60;;;6.03;;
9761;SDS011;4920;49.594;11.022;2023-08-20T12:44:19;12.13;;;6.10;;
9761;SDS011;4920;49.594;11.022;2023-08-20T12:46:48;9.15;;;6.05;;
9761;SDS011;4920;49.594;11.022;2023-08-20T12:49:16;13.00;;;6.35;;
9761;SDS011;4920;49.594;11.022;2023-08-20T12:51:46;7.47;;;5.82;;
9761;SDS011;4920;49.594;11.022;2023-08-20T12:54:15;7.95;;;5.95;;
9761;SDS011;4920;49.594;11.022;2023-08-20T12:56:44;9.05;;;5.78;;
9761;SDS011;4920;49.594;11.022;2023-08-20T12:59:13;7.50;;;5.97;;
9761;SDS011;4920;49.594;11.022;2023-08-20T13:01:42;9.75;;;5.72;;
9761;SDS011;4920;49.594;11.022;2023-08-20T13:04:12;9.57;;;5.70;;
9761;SDS011;4920;49.594;11.022;2023-08-20T13:06:41;8.20;;;6.18;;
9761;SDS011;4920;49.594;11.022;2023-08-20T13:09:12;9.38;;;5.50;;
9761;SDS011;4920;49.594;11.022;2023-08-20T13:11:42;7.78;;;5.88;;
9761;SDS011;4920;49.594;11.022;2023-08-20T13:14:12;7.78;;;5.85;;
9761;SDS011;4920;49.594;11.022;2023-08-20T13:16:41;8.35;;;5.55;;
9761;SDS011;4920;49.594;11.022;2023-08-20T13:19:11;9.38;;;6.13;;
9761;SDS011;4920;49.594;11.022;2023-08-20T13:21:40;8.43;;;5.80;;
9761;SDS011;4920;49.594;11.022;2023-08-20T13:24:09;6.72;;;5.75;;
9761;SDS011;4920;49.594;11.022;2023-08-20T13:26:39;8.88;;;6.30;;
9761;SDS011;4920;49.594;11.022;2023-08-20T13:29:08;10.32;;;5.53;;
9761;SDS011;4920;49.594;11.022;2023-08-20T13:31:37;7.35;;;5.80;;
9761;SDS011;4920;49.594;11.022;2023-08-20T13:34:06;7.15;;;6.00;;
9761;SDS011;4920;49.594;11.022;2023-08-20T13:36:34;6.22;;;5.57;;
9761;SDS011;4920;49.594;11.022;2023-08-20T13:39:05;7.53;;;5.13;;
9761;SDS011;4920;49.594;11.022;2023-08-20T13:41:34;9.82;;;5.65;;
9761;SDS011;4920;49.594;11.022;2023-08-20T13:44:04;8.27;;;5.40;;
9761;SDS011;4920;49.594;11.022;2023-08-20T13:46:33;8.98;;;5.22;;
9761;SDS011;4920;49.594;11.022;2023-08-20T13:49:02;13.15;;;6.18;;
9761;SDS011;4920;49.594;11.022;2023-08-20T13:51:31;11.60;;;5.53;;
9761;SDS011;4920;49.594;11.022;2023-08-20T13:54:00;11.80;;;5.68;;
9761;SDS011;4920;49.594;11.022;2023-08-20T13:56:29;8.90;;;5.45;;
9761;SDS011;4920;49.594;11.022;2023-08-20T13:58:57;11.52;;;5.47;;
9761;SDS011;4920;49.594;11.022;2023-08-20T14:01:28;9.63;;;5.03;;
9761;SDS011;4920;49.594;11.022;2023-08-20T14:03:56;6.03;;;5.38;;
9761;SDS011;4920;49.594;11.022;2023-08-20T14:06:25;9.82;;;5.55;;
9761;SDS011;4920;49.594;11.022;2023-08-20T14:08:54;10.80;;;5.45;;
9761;SDS011;4920;49.594;11.022;2023-08-20T14:11:23;7.70;;;5.40;;
9761;SDS011;4920;49.594;11.022;2023-08-20T14:13:52;7.93;;;5.50;;
9761;SDS011;4920;49.594;11.022;2023-08-20T14:16:21;8.05;;;5.38;;
9761;SDS011;4920;49.594;11.022;2023-08-20T14:18:51;7.88;;;4.88;;
9761;SDS011;4920;49.594;11.022;2023-08-20T14:21:20;9.40;;;4.80;;
9761;SDS011;4920;49.594;11.022;2023-08-20T14:23:49;9.85;;;4.93;;
9761;SDS011;4920;49.594;11.022;2023-08-20T14:26:18;7.43;;;4.65;;
9761;SDS011;4920;49.594;11.022;2023-08-20T14:28:47;8.98;;;4.82;;
9761;SDS011;4920;49.594;11.022;2023-08-20T14:31:16;8.45;;;4.55;;
9761;SDS011;4920;49.594;11.022;2023-08-20T14:33:46;10.23;;;4.70;;
9761;SDS011;4920;49.594;11.022;2023-08-20T14:36:16;9.05;;;4.57;;
9761;SDS011;4920;49.594;11.022;2023-08-20T14:38:45;8.07;;;4.65;;
9761;SDS011;4920;49.594;11.022;2023-08-20T14:41:13;9.02;;;4.45;;
9761;SDS011;4920;49.594;11.022;2023-08-20T14:43:43;8.65;;;4.47;;
9761;SDS011;4920;49.594;11.022;2023-08-20T14:46:12;8.75;;;4.70;;
9761;SDS011;4920;49.594;11.022;2023-08-20T14:48:41;7.72;;;4.35;;
9761;SDS011;4920;49.594;11.022;2023-08-20T14:51:09;7.10;;;4.65;;
9761;SDS011;4920;49.594;11.022;2023-08-20T14:53:40;9.68;;;4.40;;
9761;SDS011;4920;49.594;11.022;2023-08-20T14:56:09;7.47;;;4.00;;
9761;SDS011;4920;49.594;11.022;2023-08-20T14:58:38;6.93;;;4.60;;
9761;SDS011;4920;49.594;11.022;2023-08-20T15:01:07;9.88;;;4.28;;
9761;SDS011;4920;49.594;11.022;2023-08-20T15:03:36;8.55;;;4.07;;
9761;SDS011;4920;49.594;11.022;2023-08-20T15:06:05;7.18;;;4.30;;
9761;SDS011;4920;49.594;11.022;2023-08-20T15:08:34;8.23;;;3.95;;
9761;SDS011;4920;49.594;11.022;2023-08-20T15:11:05;8.32;;;4.20;;